sensor_id;sensor_type;location;lat;lon;timestamp;P1;durP1;ratioP1;P2;durP2;ratioP2
75971;SDS011;64651;47.540;19.088;2023-07-29T00:04:53;9.30;;;5.23;;
75971;SDS011;64651;47.540;19.088;2023-07-29T00:09:55;10.60;;;5.28;;
75971;SDS011;64651;47.540;19.088;2023-07-29T00:14:57;9.95;;;5.75;;
75971;SDS011;64651;47.540;19.088;2023-07-29T00:19:59;10.73;;;5.35;;
75971;SDS011;64651;47.540;19.088;2023-07-29T00:25:01;10.70;;;5.28;;
75971;SDS011;64651;47.540;19.088;2023-07-29T00:30:04;11.70;;;5.20;;
75971;SDS011;64651;47.540;19.088;2023-07-29T00:35:07;9.90;;;4.75;;
75971;SDS011;64651;47.540;19.088;2023-07-29T00:40:14;9.80;;;5.25;;
75971;SDS011;64651;47.540;19.088;2023-07-29T00:45:20;9.63;;;4.90;;
75971;SDS011;64651;47.540;19.088;2023-07-29T00:50:22;10.68;;;4.82;;
75971;SDS011;64651;47.540;19.088;2023-07-29T00:55:25;10.23;;;5.27;;
75971;SDS011;64651;47.540;19.088;2023-07-29T01:00:27;9.23;;;4.90;;
75971;SDS011;64651;47.540;19.088;2023-07-29T01:05:31;7.97;;;4.43;;
75971;SDS011;64651;47.540;19.088;2023-07-29T01:16:17;11.00;;;5.20;;
75971;SDS011;64651;47.540;19.088;2023-07-29T01:21:25;10.17;;;5.20;;
75971;SDS011;64651;47.540;19.088;2023-07-29T01:26:29;9.35;;;5.60;;
75971;SDS011;64651;47.540;19.088;2023-07-29T01:31:35;9.43;;;5.07;;
75971;SDS011;64651;47.540;19.088;2023-07-29T01:36:44;10.68;;;5.55;;
75971;SDS011;64651;47.540;19.088;2023-07-29T01:41:48;10.98;;;4.82;;
75971;SDS011;64651;47.540;19.088;2023-07-29T01:46:52;11.13;;;5.37;;
75971;SDS011;64651;47.540;19.088;2023-07-29T01:51:54;10.15;;;4.70;;
75971;SDS011;64651;47.540;19.088;2023-07-29T01:56:56;9.70;;;5.22;;
75971;SDS011;64651;47.540;19.088;2023-07-29T02:01:59;9.68;;;4.97;;
75971;SDS011;64651;47.540;19.088;2023-07-29T02:07:01;10.52;;;5.20;;
75971;SDS011;64651;47.540;19.088;2023-07-29T02:12:03;10.87;;;5.20;;
75971;SDS011;64651;47.540;19.088;2023-07-29T02:17:05;10.07;;;5.00;;
75971;SDS011;64651;47.540;19.088;2023-07-29T02:22:09;12.27;;;5.90;;
75971;SDS011;64651;47.540;19.088;2023-07-29T02:27:14;11.77;;;5.03;;
75971;SDS011;64651;47.540;19.088;2023-07-29T02:32:17;10.57;;;5.47;;
75971;SDS011;64651;47.540;19.088;2023-07-29T02:37:19;11.97;;;5.60;;
75971;SDS011;64651;47.540;19.088;2023-07-29T02:42:21;13.55;;;5.90;;
75971;SDS011;64651;47.540;19.088;2023-07-29T02:47:24;9.73;;;5.12;;
75971;SDS011;64651;47.540;19.088;2023-07-29T02:52:26;15.50;;;5.60;;
75971;SDS011;64651;47.540;19.088;2023-07-29T02:57:28;10.82;;;4.78;;
75971;SDS011;64651;47.540;19.088;2023-07-29T03:02:30;9.73;;;5.27;;
75971;SDS011;64651;47.540;19.088;2023-07-29T03:07:33;9.07;;;5.07;;
75971;SDS011;64651;47.540;19.088;2023-07-29T03:12:35;9.55;;;4.68;;
75971;SDS011;64651;47.540;19.088;2023-07-29T03:17:37;9.70;;;4.87;;
75971;SDS011;64651;47.540;19.088;2023-07-29T03:22:39;10.00;;;5.12;;
75971;SDS011;64651;47.540;19.088;2023-07-29T03:27:41;10.83;;;5.07;;
75971;SDS011;64651;47.540;19.088;2023-07-29T03:32:44;10.90;;;4.95;;
75971;SDS011;64651;47.540;19.088;2023-07-29T03:37:47;9.27;;;4.78;;
75971;SDS011;64651;47.540;19.088;2023-07-29T03:42:49;9.70;;;5.03;;
75971;SDS011;64651;47.540;19.088;2023-07-29T03:47:51;10.35;;;4.80;;
75971;SDS011;64651;47.540;19.088;2023-07-29T03:52:54;9.40;;;4.40;;
75971;SDS011;64651;47.540;19.088;2023-07-29T03:57:59;8.45;;;4.45;;
75971;SDS011;64651;47.540;19.088;2023-07-29T04:03:01;10.50;;;4.65;;
75971;SDS011;64651;47.540;19.088;2023-07-29T04:08:07;10.15;;;4.37;;
75971;SDS011;64651;47.540;19.088;2023-07-29T04:13:09;9.15;;;4.68;;
75971;SDS011;64651;47.540;19.088;2023-07-29T04:18:11;9.37;;;4.83;;
75971;SDS011;64651;47.540;19.088;2023-07-29T04:23:13;10.27;;;4.80;;
75971;SDS011;64651;47.540;19.088;2023-07-29T04:28:16;8.75;;;4.72;;
75971;SDS011;64651;47.540;19.088;2023-07-29T04:33:18;9.77;;;5.05;;
75971;SDS011;64651;47.540;19.088;2023-07-29T04:38:20;10.45;;;5.30;;
75971;SDS011;64651;47.540;19.088;2023-07-29T04:43:22;12.60;;;5.10;;
75971;SDS011;64651;47.540;19.088;2023-07-29T04:48:28;11.02;;;5.47;;
75971;SDS011;64651;47.540;19.088;2023-07-29T04:53:30;13.93;;;7.37;;
75971;SDS011;64651;47.540;19.088;2023-07-29T04:58:32;12.48;;;7.22;;
75971;SDS011;64651;47.540;19.088;2023-07-29T05:03:36;14.75;;;8.00;;
75971;SDS011;64651;47.540;19.088;2023-07-29T05:08:41;12.70;;;7.87;;
75971;SDS011;64651;47.540;19.088;2023-07-29T05:13:43;13.10;;;8.23;;
75971;SDS011;64651;47.540;19.088;2023-07-29T05:18:46;14.90;;;9.20;;
75971;SDS011;64651;47.540;19.088;2023-07-29T05:23:48;21.20;;;13.18;;
75971;SDS011;64651;47.540;19.088;2023-07-29T05:28:51;36.95;;;19.58;;
75971;SDS011;64651;47.540;19.088;2023-07-29T05:33:54;29.30;;;15.63;;
75971;SDS011;64651;47.540;19.088;2023-07-29T05:38:56;14.75;;;8.02;;
75971;SDS011;64651;47.540;19.088;2023-07-29T05:43:58;15.48;;;8.15;;
75971;SDS011;64651;47.540;19.088;2023-07-29T05:49:00;17.27;;;7.90;;
75971;SDS011;64651;47.540;19.088;2023-07-29T05:54:02;11.00;;;5.62;;
75971;SDS011;64651;47.540;19.088;2023-07-29T05:59:05;10.10;;;5.43;;
75971;SDS011;64651;47.540;19.088;2023-07-29T06:04:07;12.82;;;6.87;;
75971;SDS011;64651;47.540;19.088;2023-07-29T06:09:09;9.45;;;5.03;;
75971;SDS011;64651;47.540;19.088;2023-07-29T06:14:12;8.80;;;4.80;;
75971;SDS011;64651;47.540;19.088;2023-07-29T06:19:14;9.93;;;5.03;;
75971;SDS011;64651;47.540;19.088;2023-07-29T06:24:16;10.33;;;5.57;;
75971;SDS011;64651;47.540;19.088;2023-07-29T06:29:19;9.95;;;5.93;;
75971;SDS011;64651;47.540;19.088;2023-07-29T06:34:21;10.68;;;5.80;;
75971;SDS011;64651;47.540;19.088;2023-07-29T06:39:27;9.20;;;5.78;;
75971;SDS011;64651;47.540;19.088;2023-07-29T06:44:29;9.50;;;5.80;;
75971;SDS011;64651;47.540;19.088;2023-07-29T06:49:31;14.00;;;5.80;;
75971;SDS011;64651;47.540;19.088;2023-07-29T06:54:33;12.25;;;5.55;;
75971;SDS011;64651;47.540;19.088;2023-07-29T06:59:36;10.50;;;5.32;;
75971;SDS011;64651;47.540;19.088;2023-07-29T07:04:40;11.05;;;4.75;;
75971;SDS011;64651;47.540;19.088;2023-07-29T07:09:42;8.38;;;4.55;;
75971;SDS011;64651;47.540;19.088;2023-07-29T07:14:44;8.10;;;4.47;;
75971;SDS011;64651;47.540;19.088;2023-07-29T07:19:46;8.15;;;4.53;;
75971;SDS011;64651;47.540;19.088;2023-07-29T07:24:48;8.85;;;5.20;;
75971;SDS011;64651;47.540;19.088;2023-07-29T07:29:50;7.82;;;4.85;;
75971;SDS011;64651;47.540;19.088;2023-07-29T07:34:53;12.35;;;5.37;;
75971;SDS011;64651;47.540;19.088;2023-07-29T07:39:55;8.20;;;4.97;;
75971;SDS011;64651;47.540;19.088;2023-07-29T07:44:57;8.57;;;5.10;;
75971;SDS011;64651;47.540;19.088;2023-07-29T07:49:59;8.05;;;5.22;;
75971;SDS011;64651;47.540;19.088;2023-07-29T07:55:01;8.38;;;4.62;;
75971;SDS011;64651;47.540;19.088;2023-07-29T08:00:04;9.85;;;5.00;;
75971;SDS011;64651;47.540;19.088;2023-07-29T08:05:07;9.03;;;6.40;;
75971;SDS011;64651;47.540;19.088;2023-07-29T08:10:10;9.27;;;6.57;;
75971;SDS011;64651;47.540;19.088;2023-07-29T08:15:12;9.27;;;7.15;;
75971;SDS011;64651;47.540;19.088;2023-07-29T08:20:14;9.60;;;8.30;;
75971;SDS011;64651;47.540;19.088;2023-07-29T08:25:16;9.75;;;8.75;;
75971;SDS011;64651;47.540;19.088;2023-07-29T08:30:18;10.00;;;8.50;;
75971;SDS011;64651;47.540;19.088;2023-07-29T08:35:21;11.55;;;9.13;;
75971;SDS011;64651;47.540;19.088;2023-07-29T08:40:24;9.40;;;8.50;;
75971;SDS011;64651;47.540;19.088;2023-07-29T08:45:34;10.30;;;9.35;;
75971;SDS011;64651;47.540;19.088;2023-07-29T08:50:38;10.25;;;9.25;;
75971;SDS011;64651;47.540;19.088;2023-07-29T08:55:42;10.10;;;9.20;;
75971;SDS011;64651;47.540;19.088;2023-07-29T09:00:44;11.95;;;10.95;;
75971;SDS011;64651;47.540;19.088;2023-07-29T09:05:48;10.35;;;9.45;;
75971;SDS011;64651;47.540;19.088;2023-07-29T09:10:51;10.57;;;9.68;;
75971;SDS011;64651;47.540;19.088;2023-07-29T09:15:54;10.50;;;9.60;;
75971;SDS011;64651;47.540;19.088;2023-07-29T09:20:58;12.80;;;11.80;;
75971;SDS011;64651;47.540;19.088;2023-07-29T09:26:02;12.93;;;11.82;;
75971;SDS011;64651;47.540;19.088;2023-07-29T09:31:05;12.93;;;11.93;;
75971;SDS011;64651;47.540;19.088;2023-07-29T09:36:08;13.18;;;12.10;;
75971;SDS011;64651;47.540;19.088;2023-07-29T09:41:18;14.05;;;13.05;;
75971;SDS011;64651;47.540;19.088;2023-07-29T09:46:22;13.33;;;12.23;;
75971;SDS011;64651;47.540;19.088;2023-07-29T09:51:25;13.20;;;12.20;;
75971;SDS011;64651;47.540;19.088;2023-07-29T09:56:27;12.50;;;11.50;;
75971;SDS011;64651;47.540;19.088;2023-07-29T10:01:29;10.80;;;9.80;;
75971;SDS011;64651;47.540;19.088;2023-07-29T10:06:32;12.07;;;11.07;;
75971;SDS011;64651;47.540;19.088;2023-07-29T10:11:37;13.67;;;12.57;;
75971;SDS011;64651;47.540;19.088;2023-07-29T10:16:40;13.00;;;11.95;;
75971;SDS011;64651;47.540;19.088;2023-07-29T10:21:47;14.07;;;12.98;;
75971;SDS011;64651;47.540;19.088;2023-07-29T10:26:51;12.55;;;11.52;;
75971;SDS011;64651;47.540;19.088;2023-07-29T10:31:54;15.70;;;14.50;;
75971;SDS011;64651;47.540;19.088;2023-07-29T10:36:59;16.87;;;15.67;;
75971;SDS011;64651;47.540;19.088;2023-07-29T10:42:02;17.60;;;16.40;;
75971;SDS011;64651;47.540;19.088;2023-07-29T10:47:11;20.12;;;18.55;;
75971;SDS011;64651;47.540;19.088;2023-07-29T10:52:30;16.35;;;15.25;;
75971;SDS011;64651;47.540;19.088;2023-07-29T10:57:38;16.30;;;15.13;;
75971;SDS011;64651;47.540;19.088;2023-07-29T11:02:43;13.40;;;12.30;;
75971;SDS011;64651;47.540;19.088;2023-07-29T11:08:02;13.02;;;11.93;;
75971;SDS011;64651;47.540;19.088;2023-07-29T11:13:27;14.98;;;13.88;;
75971;SDS011;64651;47.540;19.088;2023-07-29T11:18:33;14.70;;;13.60;;
75971;SDS011;64651;47.540;19.088;2023-07-29T11:23:37;16.77;;;15.57;;
75971;SDS011;64651;47.540;19.088;2023-07-29T11:28:39;12.40;;;11.40;;
75971;SDS011;64651;47.540;19.088;2023-07-29T11:33:42;10.90;;;9.88;;
75971;SDS011;64651;47.540;19.088;2023-07-29T11:38:45;11.55;;;10.63;;
75971;SDS011;64651;47.540;19.088;2023-07-29T11:43:48;11.10;;;10.20;;
75971;SDS011;64651;47.540;19.088;2023-07-29T11:48:50;14.63;;;13.52;;
75971;SDS011;64651;47.540;19.088;2023-07-29T11:53:55;18.07;;;16.80;;
75971;SDS011;64651;47.540;19.088;2023-07-29T11:58:57;17.42;;;16.12;;
75971;SDS011;64651;47.540;19.088;2023-07-29T12:03:59;18.12;;;16.83;;
75971;SDS011;64651;47.540;19.088;2023-07-29T12:09:02;17.17;;;15.98;;
75971;SDS011;64651;47.540;19.088;2023-07-29T12:14:07;15.55;;;14.35;;
75971;SDS011;64651;47.540;19.088;2023-07-29T12:19:13;13.90;;;12.70;;
75971;SDS011;64651;47.540;19.088;2023-07-29T12:24:15;15.20;;;14.05;;
75971;SDS011;64651;47.540;19.088;2023-07-29T12:29:19;15.13;;;14.02;;
75971;SDS011;64651;47.540;19.088;2023-07-29T12:34:30;14.60;;;13.40;;
75971;SDS011;64651;47.540;19.088;2023-07-29T12:39:33;12.35;;;11.35;;
75971;SDS011;64651;47.540;19.088;2023-07-29T12:44:37;10.33;;;9.43;;
75971;SDS011;64651;47.540;19.088;2023-07-29T12:49:40;8.57;;;7.78;;
75971;SDS011;64651;47.540;19.088;2023-07-29T12:54:44;10.40;;;9.50;;
75971;SDS011;64651;47.540;19.088;2023-07-29T12:59:46;11.10;;;10.10;;
75971;SDS011;64651;47.540;19.088;2023-07-29T13:04:49;10.15;;;9.25;;
75971;SDS011;64651;47.540;19.088;2023-07-29T13:09:52;10.13;;;9.23;;
75971;SDS011;64651;47.540;19.088;2023-07-29T13:14:54;11.57;;;10.57;;
75971;SDS011;64651;47.540;19.088;2023-07-29T13:19:56;11.48;;;10.45;;
75971;SDS011;64651;47.540;19.088;2023-07-29T13:24:58;10.82;;;9.88;;
75971;SDS011;64651;47.540;19.088;2023-07-29T13:30:00;12.20;;;11.15;;
75971;SDS011;64651;47.540;19.088;2023-07-29T13:35:03;10.37;;;9.47;;
75971;SDS011;64651;47.540;19.088;2023-07-29T13:40:05;11.02;;;10.13;;
75971;SDS011;64651;47.540;19.088;2023-07-29T13:45:08;11.98;;;10.95;;
75971;SDS011;64651;47.540;19.088;2023-07-29T13:50:11;11.07;;;10.15;;
75971;SDS011;64651;47.540;19.088;2023-07-29T13:55:13;11.57;;;10.57;;
75971;SDS011;64651;47.540;19.088;2023-07-29T14:00:16;11.77;;;10.77;;
75971;SDS011;64651;47.540;19.088;2023-07-29T14:05:18;12.57;;;11.57;;
75971;SDS011;64651;47.540;19.088;2023-07-29T14:10:20;12.20;;;11.20;;
75971;SDS011;64651;47.540;19.088;2023-07-29T14:15:22;12.60;;;11.60;;
75971;SDS011;64651;47.540;19.088;2023-07-29T14:20:25;12.15;;;11.15;;
75971;SDS011;64651;47.540;19.088;2023-07-29T14:25:27;12.97;;;11.93;;
75971;SDS011;64651;47.540;19.088;2023-07-29T14:30:29;11.05;;;10.05;;
75971;SDS011;64651;47.540;19.088;2023-07-29T14:35:31;9.50;;;8.68;;
75971;SDS011;64651;47.540;19.088;2023-07-29T14:40:34;9.25;;;8.35;;
75971;SDS011;64651;47.540;19.088;2023-07-29T14:45:36;7.72;;;6.93;;
75971;SDS011;64651;47.540;19.088;2023-07-29T14:50:38;8.90;;;8.00;;
75971;SDS011;64651;47.540;19.088;2023-07-29T14:55:40;7.85;;;6.45;;
75971;SDS011;64651;47.540;19.088;2023-07-29T15:00:45;7.72;;;6.93;;
75971;SDS011;64651;47.540;19.088;2023-07-29T15:05:47;8.50;;;6.57;;
75971;SDS011;64651;47.540;19.088;2023-07-29T15:10:50;7.37;;;5.97;;
75971;SDS011;64651;47.540;19.088;2023-07-29T15:15:52;7.33;;;5.80;;
75971;SDS011;64651;47.540;19.088;2023-07-29T15:20:56;6.95;;;4.65;;
75971;SDS011;64651;47.540;19.088;2023-07-29T15:25:59;7.57;;;5.65;;
75971;SDS011;64651;47.540;19.088;2023-07-29T15:31:01;7.55;;;6.10;;
75971;SDS011;64651;47.540;19.088;2023-07-29T15:36:03;6.87;;;4.95;;
75971;SDS011;64651;47.540;19.088;2023-07-29T15:41:06;8.00;;;5.97;;
75971;SDS011;64651;47.540;19.088;2023-07-29T15:46:08;7.00;;;5.37;;
75971;SDS011;64651;47.540;19.088;2023-07-29T15:51:10;7.35;;;5.68;;
75971;SDS011;64651;47.540;19.088;2023-07-29T15:56:12;7.35;;;5.32;;
75971;SDS011;64651;47.540;19.088;2023-07-29T16:01:15;7.37;;;5.75;;
75971;SDS011;64651;47.540;19.088;2023-07-29T16:06:17;7.47;;;5.50;;
75971;SDS011;64651;47.540;19.088;2023-07-29T16:11:20;7.85;;;5.25;;
75971;SDS011;64651;47.540;19.088;2023-07-29T16:16:22;8.18;;;5.32;;
75971;SDS011;64651;47.540;19.088;2023-07-29T16:21:24;8.73;;;4.93;;
75971;SDS011;64651;47.540;19.088;2023-07-29T16:26:27;7.60;;;5.25;;
75971;SDS011;64651;47.540;19.088;2023-07-29T16:31:29;9.23;;;5.53;;
75971;SDS011;64651;47.540;19.088;2023-07-29T16:36:31;8.25;;;5.15;;
75971;SDS011;64651;47.540;19.088;2023-07-29T16:41:34;7.62;;;5.18;;
75971;SDS011;64651;47.540;19.088;2023-07-29T16:46:39;7.10;;;4.72;;
75971;SDS011;64651;47.540;19.088;2023-07-29T16:51:41;7.28;;;4.45;;
75971;SDS011;64651;47.540;19.088;2023-07-29T16:56:44;8.40;;;4.83;;
75971;SDS011;64651;47.540;19.088;2023-07-29T17:01:48;7.53;;;4.53;;
75971;SDS011;64651;47.540;19.088;2023-07-29T17:06:51;8.43;;;4.57;;
75971;SDS011;64651;47.540;19.088;2023-07-29T17:11:53;6.95;;;4.45;;
75971;SDS011;64651;47.540;19.088;2023-07-29T17:16:56;7.15;;;4.40;;
75971;SDS011;64651;47.540;19.088;2023-07-29T17:21:59;8.47;;;4.60;;
75971;SDS011;64651;47.540;19.088;2023-07-29T17:27:01;8.50;;;4.55;;
75971;SDS011;64651;47.540;19.088;2023-07-29T17:32:03;7.50;;;4.40;;
75971;SDS011;64651;47.540;19.088;2023-07-29T17:37:06;7.28;;;4.25;;
75971;SDS011;64651;47.540;19.088;2023-07-29T17:42:08;7.93;;;3.60;;
75971;SDS011;64651;47.540;19.088;2023-07-29T17:47:11;7.60;;;3.47;;
75971;SDS011;64651;47.540;19.088;2023-07-29T17:52:13;7.93;;;3.92;;
75971;SDS011;64651;47.540;19.088;2023-07-29T17:57:15;6.78;;;3.62;;
75971;SDS011;64651;47.540;19.088;2023-07-29T18:02:17;6.18;;;3.37;;
75971;SDS011;64651;47.540;19.088;2023-07-29T18:07:20;6.30;;;3.60;;
75971;SDS011;64651;47.540;19.088;2023-07-29T18:12:22;7.40;;;3.13;;
75971;SDS011;64651;47.540;19.088;2023-07-29T18:17:24;6.25;;;3.22;;
75971;SDS011;64651;47.540;19.088;2023-07-29T18:22:26;6.97;;;3.20;;
75971;SDS011;64651;47.540;19.088;2023-07-29T18:27:29;6.40;;;2.83;;
75971;SDS011;64651;47.540;19.088;2023-07-29T18:32:31;6.85;;;3.62;;
75971;SDS011;64651;47.540;19.088;2023-07-29T18:37:35;6.30;;;3.00;;
75971;SDS011;64651;47.540;19.088;2023-07-29T18:42:37;7.93;;;3.72;;
75971;SDS011;64651;47.540;19.088;2023-07-29T18:47:40;7.13;;;3.97;;
75971;SDS011;64651;47.540;19.088;2023-07-29T18:52:42;6.60;;;3.20;;
75971;SDS011;64651;47.540;19.088;2023-07-29T18:57:45;8.10;;;3.42;;
75971;SDS011;64651;47.540;19.088;2023-07-29T19:02:47;7.40;;;3.97;;
75971;SDS011;64651;47.540;19.088;2023-07-29T19:07:50;6.95;;;4.00;;
75971;SDS011;64651;47.540;19.088;2023-07-29T19:12:52;7.40;;;3.80;;
75971;SDS011;64651;47.540;19.088;2023-07-29T19:17:58;7.43;;;3.55;;
75971;SDS011;64651;47.540;19.088;2023-07-29T19:23:01;7.70;;;3.90;;
75971;SDS011;64651;47.540;19.088;2023-07-29T19:28:03;7.80;;;4.03;;
75971;SDS011;64651;47.540;19.088;2023-07-29T19:33:06;8.13;;;3.97;;
75971;SDS011;64651;47.540;19.088;2023-07-29T19:38:09;7.07;;;3.80;;
75971;SDS011;64651;47.540;19.088;2023-07-29T19:43:12;7.55;;;4.03;;
75971;SDS011;64651;47.540;19.088;2023-07-29T19:48:14;7.45;;;3.78;;
75971;SDS011;64651;47.540;19.088;2023-07-29T19:53:16;7.20;;;4.10;;
75971;SDS011;64651;47.540;19.088;2023-07-29T19:58:19;7.75;;;3.78;;
75971;SDS011;64651;47.540;19.088;2023-07-29T20:03:21;7.53;;;3.60;;
75971;SDS011;64651;47.540;19.088;2023-07-29T20:08:23;7.32;;;4.20;;
75971;SDS011;64651;47.540;19.088;2023-07-29T20:13:26;8.73;;;3.97;;
75971;SDS011;64651;47.540;19.088;2023-07-29T20:18:28;8.40;;;3.70;;
75971;SDS011;64651;47.540;19.088;2023-07-29T20:23:31;7.78;;;3.60;;
75971;SDS011;64651;47.540;19.088;2023-07-29T20:28:33;8.07;;;3.63;;
75971;SDS011;64651;47.540;19.088;2023-07-29T20:33:35;6.72;;;3.60;;
75971;SDS011;64651;47.540;19.088;2023-07-29T20:38:37;8.38;;;3.72;;
75971;SDS011;64651;47.540;19.088;2023-07-29T20:43:42;7.20;;;3.50;;
75971;SDS011;64651;47.540;19.088;2023-07-29T20:48:44;7.72;;;3.40;;
75971;SDS011;64651;47.540;19.088;2023-07-29T20:53:46;7.67;;;2.83;;
75971;SDS011;64651;47.540;19.088;2023-07-29T20:58:49;6.93;;;2.97;;
75971;SDS011;64651;47.540;19.088;2023-07-29T21:03:52;6.40;;;2.78;;
75971;SDS011;64651;47.540;19.088;2023-07-29T21:08:55;6.87;;;3.03;;
75971;SDS011;64651;47.540;19.088;2023-07-29T21:13:57;7.53;;;3.20;;
75971;SDS011;64651;47.540;19.088;2023-07-29T21:18:59;7.87;;;3.20;;
75971;SDS011;64651;47.540;19.088;2023-07-29T21:24:01;8.50;;;3.17;;
75971;SDS011;64651;47.540;19.088;2023-07-29T21:29:04;6.72;;;2.95;;
75971;SDS011;64651;47.540;19.088;2023-07-29T21:34:06;6.70;;;3.20;;
75971;SDS011;64651;47.540;19.088;2023-07-29T21:39:08;9.85;;;3.12;;
75971;SDS011;64651;47.540;19.088;2023-07-29T21:44:10;6.80;;;3.20;;
75971;SDS011;64651;47.540;19.088;2023-07-29T21:49:12;6.80;;;3.12;;
75971;SDS011;64651;47.540;19.088;2023-07-29T21:54:15;6.55;;;2.70;;
75971;SDS011;64651;47.540;19.088;2023-07-29T21:59:17;7.60;;;3.07;;
75971;SDS011;64651;47.540;19.088;2023-07-29T22:04:19;8.45;;;3.00;;
75971;SDS011;64651;47.540;19.088;2023-07-29T22:09:21;7.90;;;3.17;;
75971;SDS011;64651;47.540;19.088;2023-07-29T22:14:25;8.90;;;3.33;;
75971;SDS011;64651;47.540;19.088;2023-07-29T22:19:27;7.65;;;3.58;;
75971;SDS011;64651;47.540;19.088;2023-07-29T22:24:30;6.63;;;2.70;;
75971;SDS011;64651;47.540;19.088;2023-07-29T22:29:33;6.93;;;3.08;;
75971;SDS011;64651;47.540;19.088;2023-07-29T22:34:35;6.20;;;2.70;;
75971;SDS011;64651;47.540;19.088;2023-07-29T22:39:37;6.78;;;2.90;;
75971;SDS011;64651;47.540;19.088;2023-07-29T22:44:40;6.45;;;3.08;;
75971;SDS011;64651;47.540;19.088;2023-07-29T22:49:42;6.20;;;3.03;;
75971;SDS011;64651;47.540;19.088;2023-07-29T22:54:45;7.00;;;2.67;;
75971;SDS011;64651;47.540;19.088;2023-07-29T22:59:47;7.30;;;3.13;;
75971;SDS011;64651;47.540;19.088;2023-07-29T23:04:49;7.30;;;3.20;;
75971;SDS011;64651;47.540;19.088;2023-07-29T23:09:52;6.70;;;2.87;;
75971;SDS011;64651;47.540;19.088;2023-07-29T23:14:54;7.30;;;3.10;;
75971;SDS011;64651;47.540;19.088;2023-07-29T23:19:56;6.93;;;2.90;;
75971;SDS011;64651;47.540;19.088;2023-07-29T23:24:58;5.97;;;2.77;;
75971;SDS011;64651;47.540;19.088;2023-07-29T23:30:02;6.12;;;3.03;;
75971;SDS011;64651;47.540;19.088;2023-07-29T23:35:08;6.70;;;2.92;;
75971;SDS011;64651;47.540;19.088;2023-07-29T23:40:10;6.57;;;2.70;;
75971;SDS011;64651;47.540;19.088;2023-07-29T23:45:12;6.10;;;3.10;;
75971;SDS011;64651;47.540;19.088;2023-07-29T23:50:15;6.77;;;3.03;;
75971;SDS011;64651;47.540;19.088;2023-07-29T23:55:17;6.15;;;2.75;;
